Time;durP1;ratioP1;P1;durP2;ratioP2;P2;SDS_P1;SDS_P2;PMS_P1;PMS_P2;Temp;Humidity;BMP_temperature;BMP_pressure;BME280_temperature;BME280_humidity;BME280_pressure;Samples;Min_cycle;Max_cycle;Signal;HPM_P1;HPM_P2
2021/05/27 00:00:33;;;;;;;3.58;1.48;;;16.90;63.60;;;;;;5053386;28;20067;-61
2021/05/27 00:02:59;;;;;;;4.30;2.00;;;16.90;63.60;;;;;;5053314;28;20033;-61
2021/05/27 00:05:25;;;;;;;2.78;1.73;;;16.90;63.70;;;;;;5052962;28;20095;-61
2021/05/27 00:07:52;;;;;;;4.30;1.90;;;16.80;63.60;;;;;;5053209;28;20041;-61
2021/05/27 00:10:30;;;;;;;3.22;1.70;;;16.80;63.60;;;;;;5052966;28;20025;-60
2021/05/27 00:12:57;;;;;;;4.50;1.80;;;16.70;63.60;;;;;;5053192;28;20025;-61
2021/05/27 00:15:25;;;;;;;2.95;1.63;;;16.80;63.60;;;;;;5052897;28;20298;-61
2021/05/27 00:17:51;;;;;;;3.33;1.98;;;16.90;63.60;;;;;;5053034;28;20063;-61
2021/05/27 00:20:16;;;;;;;3.53;1.98;;;16.90;63.60;;;;;;5051602;28;20056;-61
2021/05/27 00:22:43;;;;;;;4.28;2.10;;;16.90;63.60;;;;;;5052789;28;20088;-61
2021/05/27 00:25:10;;;;;;;3.45;1.70;;;16.60;63.50;;;;;;5052702;28;20104;-61
2021/05/27 00:27:35;;;;;;;3.42;1.80;;;16.80;63.50;;;;;;5052741;28;20383;-61
2021/05/27 00:30:02;;;;;;;4.75;2.40;;;16.80;63.50;;;;;;5052622;28;20108;-60
2021/05/27 00:32:28;;;;;;;4.35;2.00;;;16.80;63.50;;;;;;5052894;28;20017;-61
2021/05/27 00:34:54;;;;;;;2.45;1.85;;;16.80;63.60;;;;;;5052586;28;20424;-61
2021/05/27 00:37:19;;;;;;;4.72;2.05;;;16.80;63.50;;;;;;5052711;28;20491;-61
2021/05/27 00:39:45;;;;;;;3.20;2.03;;;16.90;63.60;;;;;;5051602;28;20157;-61
2021/05/27 00:42:11;;;;;;;3.22;1.73;;;16.60;63.40;;;;;;5052782;28;20078;-61
2021/05/27 00:44:36;;;;;;;4.15;1.85;;;16.80;63.60;;;;;;5051312;28;20052;-61
2021/05/27 00:47:08;;;;;;;3.40;1.75;;;16.60;63.50;;;;;;5052434;28;20021;-61
2021/05/27 00:49:33;;;;;;;3.85;1.65;;;16.70;63.50;;;;;;5052404;28;20056;-61
2021/05/27 00:51:59;;;;;;;3.00;2.10;;;16.80;63.50;;;;;;5052400;28;20025;-60
2021/05/27 00:54:25;;;;;;;4.13;2.10;;;16.80;63.70;;;;;;5051149;28;20083;-61
2021/05/27 00:56:52;;;;;;;5.68;2.00;;;16.80;63.50;;;;;;5052616;28;20063;-60
2021/05/27 00:59:18;;;;;;;2.95;1.75;;;16.90;63.60;;;;;;5055393;28;20040;-60
2021/05/27 01:01:47;;;;;;;4.78;2.20;;;16.90;63.60;;;;;;5056478;28;20071;-60
2021/05/27 01:04:12;;;;;;;3.97;2.05;;;16.80;63.60;;;;;;5056657;28;20103;-60
2021/05/27 01:06:38;;;;;;;3.30;1.88;;;16.60;63.40;;;;;;5056626;28;20485;-60
2021/05/27 01:09:05;;;;;;;4.90;1.88;;;16.50;63.40;;;;;;5056283;28;20021;-60
2021/05/27 01:11:31;;;;;;;2.50;1.80;;;16.80;63.60;;;;;;5054958;28;20025;-60
2021/05/27 01:13:56;;;;;;;5.13;2.20;;;16.80;63.60;;;;;;5056214;28;20029;-60
2021/05/27 01:16:23;;;;;;;3.65;2.40;;;16.80;63.50;;;;;;5055230;28;20079;-60
2021/05/27 01:18:49;;;;;;;2.90;2.10;;;16.90;63.50;;;;;;5054754;28;20033;-60
2021/05/27 01:21:16;;;;;;;4.63;2.28;;;16.60;63.30;;;;;;5056120;28;20088;-60
2021/05/27 01:23:43;;;;;;;3.13;2.10;;;16.90;63.60;;;;;;5056107;28;20075;-60
2021/05/27 01:26:10;;;;;;;4.05;2.00;;;16.70;63.40;;;;;;5055974;28;20490;-61
2021/05/27 01:28:37;;;;;;;3.97;2.65;;;16.50;63.30;;;;;;5054664;28;20104;-60
2021/05/27 01:31:07;;;;;;;5.32;2.70;;;16.70;63.40;;;;;;5056168;28;20028;-60
2021/05/27 01:33:33;;;;;;;4.63;2.08;;;16.30;63.20;;;;;;5055960;28;20056;-60
2021/05/27 01:36:00;;;;;;;6.65;2.60;;;16.80;63.60;;;;;;5054563;28;20033;-60
2021/05/27 01:38:31;;;;;;;4.18;2.10;;;16.70;63.40;;;;;;5056023;28;20029;-60
2021/05/27 01:40:59;;;;;;;6.05;2.42;;;16.60;63.40;;;;;;5054642;28;20021;-60
2021/05/27 01:43:26;;;;;;;5.93;1.90;;;16.70;63.40;;;;;;5054392;28;20025;-60
2021/05/27 01:45:52;;;;;;;5.35;1.92;;;16.50;88.10;;;;;;5055896;28;20151;-60
2021/05/27 01:48:18;;;;;;;3.08;2.13;;;16.60;63.40;;;;;;5055566;28;20611;-60
2021/05/27 01:50:47;;;;;;;4.50;2.33;;;16.70;63.40;;;;;;5055340;28;20072;-60
2021/05/27 01:53:13;;;;;;;6.68;2.55;;;16.70;63.40;;;;;;5054595;28;20332;-60
2021/05/27 01:55:41;;;;;;;3.13;2.00;;;16.70;63.40;;;;;;5055385;28;20025;-60
2021/05/27 01:58:07;;;;;;;3.50;2.15;;;16.70;63.40;;;;;;5055386;28;20079;-59
2021/05/27 02:00:32;;;;;;;4.28;2.10;;;16.60;63.40;;;;;;5054253;28;20029;-60
2021/05/27 02:02:58;;;;;;;3.58;2.20;;;16.50;63.30;;;;;;5055356;28;20740;-60
2021/05/27 02:05:24;;;;;;;2.88;2.08;;;16.50;63.30;;;;;;5055336;28;20029;-61
2021/05/27 02:07:50;;;;;;;3.25;2.28;;;16.70;63.40;;;;;;5055539;28;20013;-61
2021/05/27 02:10:16;;;;;;;3.65;2.08;;;16.70;64.10;;;;;;5054354;28;20415;-60
2021/05/27 02:12:42;;;;;;;5.80;2.17;;;16.40;63.20;;;;;;5055258;28;20017;-60
2021/05/27 02:15:09;;;;;;;4.80;2.33;;;16.70;63.40;;;;;;5053775;28;20029;-60
2021/05/27 02:17:35;;;;;;;4.28;2.50;;;16.70;63.40;;;;;;5055288;28;20017;-61
2021/05/27 02:20:03;;;;;;;5.90;2.03;;;17.20;63.70;;;;;;5054946;28;20064;-60
2021/05/27 02:22:29;;;;;;;4.43;2.00;;;16.50;63.30;;;;;;5055248;28;20021;-60
2021/05/27 02:24:54;;;;;;;2.30;2.10;;;16.40;63.20;;;;;;5054998;28;20025;-60
2021/05/27 02:27:20;;;;;;;6.53;2.47;;;16.40;63.20;;;;;;5054958;28;20029;-60
2021/05/27 02:29:46;;;;;;;3.33;2.22;;;16.60;63.30;;;;;;5055146;28;20502;-60
2021/05/27 02:32:11;;;;;;;3.92;2.38;;;16.60;63.30;;;;;;5055083;28;20486;-60
2021/05/27 02:34:37;;;;;;;4.05;2.40;;;16.50;63.20;;;;;;5054879;28;20127;-60
2021/05/27 02:37:03;;;;;;;2.97;1.90;;;16.60;63.30;;;;;;5053416;28;20090;-60
2021/05/27 02:39:28;;;;;;;4.93;2.85;;;16.40;63.20;;;;;;5053464;28;20025;-60
2021/05/27 02:41:54;;;;;;;4.28;2.00;;;16.50;63.20;;;;;;5054799;28;20021;-60
2021/05/27 02:44:20;;;;;;;5.00;2.50;;;16.60;63.30;;;;;;5054973;28;20035;-60
2021/05/27 02:46:45;;;;;;;4.30;2.28;;;16.50;63.30;;;;;;5055092;28;20024;-61
2021/05/27 02:49:11;;;;;;;2.55;2.13;;;16.60;63.30;;;;;;5054356;28;20075;-60
2021/05/27 02:51:37;;;;;;;4.18;2.42;;;16.60;63.30;;;;;;5054680;28;20036;-60
2021/05/27 02:54:03;;;;;;;5.00;2.45;;;16.60;63.30;;;;;;5054477;28;20540;-60
2021/05/27 02:56:29;;;;;;;3.50;2.40;;;16.70;63.40;;;;;;5054341;28;20064;-59
2021/05/27 02:58:55;;;;;;;5.00;2.20;;;16.60;63.40;;;;;;5054532;28;20061;-60
2021/05/27 03:01:20;;;;;;;4.15;2.42;;;16.40;63.20;;;;;;5054538;28;20039;-60
2021/05/27 03:03:46;;;;;;;5.47;2.20;;;16.50;63.30;;;;;;5054275;28;20076;-60
2021/05/27 03:06:11;;;;;;;5.50;2.50;;;16.40;63.30;;;;;;5054415;28;20499;-59
2021/05/27 03:08:37;;;;;;;4.00;2.33;;;16.60;63.40;;;;;;5054473;28;20036;-60
2021/05/27 03:11:03;;;;;;;5.85;2.60;;;16.60;63.40;;;;;;5054303;28;20387;-60
2021/05/27 03:13:29;;;;;;;4.10;2.10;;;16.60;63.30;;;;;;5054009;28;20108;-60
2021/05/27 03:15:55;;;;;;;4.25;2.42;;;16.50;63.30;;;;;;5054232;28;20506;-60
2021/05/27 03:18:20;;;;;;;2.92;2.22;;;16.50;63.30;;;;;;5053885;28;20040;-60
2021/05/27 03:20:46;;;;;;;3.78;1.80;;;16.50;63.30;;;;;;5053659;28;20013;-60
2021/05/27 03:23:13;;;;;;;3.75;2.10;;;16.50;63.40;;;;;;5052800;28;20414;-60
2021/05/27 03:25:39;;;;;;;4.22;2.20;;;16.50;63.30;;;;;;5053854;28;20021;-60
2021/05/27 03:28:05;;;;;;;4.55;2.38;;;16.50;63.30;;;;;;5054045;28;20468;-60
2021/05/27 03:30:31;;;;;;;4.53;2.08;;;16.50;63.30;;;;;;5053622;28;20557;-60
2021/05/27 03:32:56;;;;;;;4.50;2.08;;;16.50;63.40;;;;;;5053674;28;20029;-60
2021/05/27 03:35:22;;;;;;;3.40;2.22;;;16.60;63.40;;;;;;5052481;28;20017;-60
2021/05/27 03:37:48;;;;;;;1.92;1.73;;;16.50;63.40;;;;;;5052256;28;20372;-59
2021/05/27 03:40:14;;;;;;;3.30;2.00;;;16.90;63.60;;;;;;5053851;28;20036;-60
2021/05/27 03:42:41;;;;;;;6.50;2.50;;;16.50;63.40;;;;;;5053463;28;20113;-60
2021/05/27 03:45:09;;;;;;;4.65;2.17;;;16.40;63.30;;;;;;5053468;28;20132;-60
2021/05/27 03:47:34;;;;;;;5.22;1.85;;;16.50;63.30;;;;;;5052302;28;20434;-60
2021/05/27 03:50:00;;;;;;;4.60;2.10;;;16.50;63.40;;;;;;5053098;28;20048;-59
2021/05/27 03:52:25;;;;;;;5.65;2.30;;;16.50;63.40;;;;;;5053631;28;20028;-60
2021/05/27 03:54:51;;;;;;;4.93;2.13;;;16.50;63.40;;;;;;5053431;28;20574;-59
2021/05/27 03:57:17;;;;;;;5.82;2.20;;;16.30;63.30;;;;;;5051918;28;20086;-60
2021/05/27 04:02:27;;;;;;;3.33;2.08;;;16.30;63.20;;;;;;5053449;28;20031;-60
2021/05/27 04:07:37;;;;;;;3.53;2.63;;;16.40;63.30;;;;;;5053148;28;20040;-60
2021/05/27 04:10:03;;;;;;;3.88;2.17;;;16.30;63.30;;;;;;5052940;28;20100;-59
2021/05/27 04:12:47;;;;;;;3.72;2.15;;;16.40;63.30;;;;;;5052997;28;20151;-60
2021/05/27 04:15:25;;;;;;;6.13;2.15;;;16.40;88.70;;;;;;5052234;28;20017;-60
2021/05/27 04:17:55;;;;;;;4.70;2.08;;;16.40;63.40;;;;;;5052813;28;20028;-59
2021/05/27 04:20:32;;;;;;;5.47;2.30;;;16.40;63.40;;;;;;5053033;28;20028;-60
2021/05/27 04:22:59;;;;;;;5.60;2.35;;;16.40;63.40;;;;;;5052839;28;20061;-60
2021/05/27 04:25:26;;;;;;;4.75;2.65;;;16.40;63.40;;;;;;5052638;28;20029;-60
2021/05/27 04:27:56;;;;;;;3.25;1.80;;;16.80;63.60;;;;;;5053011;28;20115;-59
2021/05/27 04:30:23;;;;;;;;;;;16.90;63.70;;;;;;5053291;28;20119;-60
2021/05/27 04:33:06;;;;;;;3.72;2.00;;;16.40;63.40;;;;;;5052023;28;19959;-60
2021/05/27 04:35:40;;;;;;;2.90;1.90;;;16.40;63.40;;;;;;5052523;28;20478;-59
2021/05/27 04:38:12;;;;;;;4.25;1.83;;;16.40;63.40;;;;;;5052415;28;20033;-59
2021/05/27 04:40:40;;;;;;;3.20;1.95;;;16.40;63.40;;;;;;5052785;28;20067;-60
2021/05/27 04:43:06;;;;;;;2.78;2.17;;;16.40;63.50;;;;;;5052487;28;20017;-59
2021/05/27 04:45:32;;;;;;;3.67;2.58;;;16.40;63.60;;;;;;5052449;28;20017;-59
2021/05/27 04:47:58;;;;;;;5.88;2.10;;;16.40;63.50;;;;;;5051076;28;20021;-59
2021/05/27 04:50:24;;;;;;;4.45;2.33;;;16.40;63.70;;;;;;5052290;28;20510;-59
2021/05/27 04:52:51;;;;;;;3.28;2.10;;;16.10;63.30;;;;;;5052635;28;20083;-60
2021/05/27 04:55:19;;;;;;;2.45;1.85;;;16.30;63.50;;;;;;5052647;28;20021;-60
2021/05/27 04:57:45;;;;;;;3.78;2.10;;;16.40;63.50;;;;;;5052493;28;20021;-60
2021/05/27 05:00:14;;;;;;;4.30;2.20;;;16.40;63.60;;;;;;5052557;28;20053;-60
2021/05/27 05:02:41;;;;;;;3.78;1.70;;;16.40;63.50;;;;;;5052520;28;20017;-60
2021/05/27 05:05:09;;;;;;;4.00;1.83;;;16.30;63.50;;;;;;5052300;28;20017;-60
2021/05/27 05:07:35;;;;;;;3.47;1.83;;;16.30;63.50;;;;;;5052483;28;20053;-60
2021/05/27 05:10:00;;;;;;;3.60;1.88;;;16.20;63.40;;;;;;5052505;28;20365;-60
2021/05/27 05:12:26;;;;;;;4.80;2.10;;;16.40;63.50;;;;;;5052527;28;20017;-61
2021/05/27 05:14:51;;;;;;;3.40;2.08;;;16.20;63.50;;;;;;5052217;28;20376;-60
2021/05/27 05:17:17;;;;;;;3.97;1.85;;;16.40;63.60;;;;;;5052297;28;20036;-60
2021/05/27 05:19:42;;;;;;;4.38;2.10;;;16.10;63.40;;;;;;5052391;28;20040;-60
2021/05/27 05:22:09;;;;;;;4.68;2.08;;;16.40;63.60;;;;;;5034383;28;20120;-60
2021/05/27 05:24:35;;;;;;;3.53;1.95;;;16.40;63.60;;;;;;5052319;28;20031;-60
2021/05/27 05:27:02;;;;;;;6.95;2.13;;;16.30;63.50;;;;;;5052348;28;20021;-61
2021/05/27 05:29:28;;;;;;;5.15;2.00;;;16.40;64.20;;;;;;5051949;28;20537;-61
2021/05/27 05:31:54;;;;;;;4.10;1.73;;;16.40;63.90;;;;;;5052098;28;20029;-61
2021/05/27 05:34:19;;;;;;;5.55;1.92;;;16.40;63.90;;;;;;5052283;28;20017;-61
2021/05/27 05:36:45;;;;;;;5.80;2.20;;;16.30;63.80;;;;;;5051966;28;20033;-61
2021/05/27 05:39:10;;;;;;;4.38;2.15;;;16.40;63.80;;;;;;5051908;28;20043;-61
2021/05/27 05:41:38;;;;;;;4.47;2.30;;;16.40;63.90;;;;;;5050623;28;20029;-61
2021/05/27 05:44:03;;;;;;;3.60;1.80;;;16.20;63.70;;;;;;5052847;28;20038;-61
2021/05/27 05:46:29;;;;;;;2.65;2.10;;;16.40;63.80;;;;;;5055823;28;20021;-61
2021/05/27 05:48:55;;;;;;;3.50;2.08;;;16.40;63.80;;;;;;5055643;28;20150;-62
2021/05/27 05:51:20;;;;;;;3.55;2.10;;;16.20;63.70;;;;;;5054323;28;20097;-62
2021/05/27 05:53:46;;;;;;;4.53;2.42;;;16.20;63.70;;;;;;5055523;28;20029;-62
2021/05/27 05:56:11;;;;;;;4.97;2.38;;;16.40;63.80;;;;;;5055443;28;20021;-61
2021/05/27 05:58:37;;;;;;;3.35;2.03;;;16.40;63.80;;;;;;5055603;28;20112;-61
2021/05/27 06:01:03;;;;;;;4.38;2.00;;;16.30;63.80;;;;;;5055423;28;20491;-59
2021/05/27 06:03:31;;;;;;;4.10;2.15;;;16.40;63.70;;;;;;5054066;28;20497;-61
2021/05/27 06:05:57;;;;;;;5.47;2.20;;;16.20;63.60;;;;;;5055255;28;20021;-60
2021/05/27 06:08:22;;;;;;;6.03;2.10;;;16.20;63.60;;;;;;5054028;28;20032;-60
2021/05/27 06:10:48;;;;;;;6.13;2.28;;;16.40;64.40;;;;;;5054072;28;20025;-60
2021/05/27 06:13:14;;;;;;;4.22;1.98;;;16.20;64.50;;;;;;5055589;28;20043;-60
2021/05/27 06:15:40;;;;;;;5.53;2.15;;;16.30;64.40;;;;;;5037450;28;20052;-60
2021/05/27 06:18:07;;;;;;;4.18;1.95;;;;;;;;;;5054270;28;20033;-60
2021/05/27 06:20:33;;;;;;;8.77;1.92;;;16.40;63.60;;;;;;5055499;28;20112;-60
2021/05/27 06:22:58;;;;;;;4.47;2.28;;;16.10;64.10;;;;;;5055256;28;20139;-60
2021/05/27 06:25:24;;;;;;;3.85;2.03;;;16.40;64.30;;;;;;5055117;28;20501;-60
2021/05/27 06:27:51;;;;;;;6.45;2.35;;;17.00;64.70;;;;;;5055420;28;20029;-60
2021/05/27 06:30:18;;;;;;;6.90;2.38;;;16.40;64.30;;;;;;5055191;28;20021;-61
2021/05/27 06:32:43;;;;;;;3.15;1.88;;;16.50;64.20;;;;;;5054889;28;20028;-61
2021/05/27 06:35:11;;;;;;;6.47;2.60;;;16.40;64.00;;;;;;5054971;28;20159;-61
2021/05/27 06:37:38;;;;;;;10.45;2.70;;;16.40;64.10;;;;;;5054718;28;20057;-62
2021/05/27 06:40:11;;;;;;;5.60;2.40;;;16.40;64.10;;;;;;5054812;28;20025;-61
2021/05/27 06:42:37;;;;;;;8.77;2.65;;;16.40;64.20;;;;;;5055064;28;20349;-62
2021/05/27 06:45:03;;;;;;;7.13;2.33;;;16.40;64.20;;;;;;5054611;28;20027;-62
2021/05/27 06:47:29;;;;;;;7.63;2.40;;;16.40;64.30;;;;;;5053244;28;20035;-58
2021/05/27 06:49:55;;;;;;;11.70;2.90;;;16.30;64.20;;;;;;5054481;28;20041;-58
2021/05/27 06:52:20;;;;;;;7.00;2.83;;;16.30;64.60;;;;;;5054604;28;20610;-59
2021/05/27 06:54:46;;;;;;;8.70;2.92;;;16.30;64.60;;;;;;5054614;28;20540;-61
2021/05/27 06:57:11;;;;;;;8.50;2.70;;;16.20;64.60;;;;;;5053558;28;20383;-61
2021/05/27 06:59:37;;;;;;;6.43;2.40;;;16.50;64.80;;;;;;5054114;28;20107;-61
2021/05/27 07:02:02;;;;;;;8.30;2.40;;;16.80;65.00;;;;;;5052927;28;20021;-61
2021/05/27 07:04:28;;;;;;;4.57;2.53;;;16.50;64.80;;;;;;5054115;28;20025;-61
2021/05/27 07:06:54;;;;;;;8.10;2.33;;;16.40;64.90;;;;;;5054215;28;20067;-61
2021/05/27 07:09:20;;;;;;;9.65;2.17;;;16.40;65.00;;;;;;5054081;28;20150;-61
2021/05/27 07:11:46;;;;;;;7.05;2.83;;;16.40;65.10;;;;;;5054036;28;20429;-61
2021/05/27 07:14:12;;;;;;;6.55;2.55;;;16.40;65.10;;;;;;5054236;28;20104;-61
2021/05/27 07:16:38;;;;;;;7.13;2.65;;;16.10;64.90;;;;;;5052751;28;20545;-61
2021/05/27 07:19:03;;;;;;;6.05;2.83;;;16.50;65.10;;;;;;5052589;28;20052;-61
2021/05/27 07:21:29;;;;;;;6.90;3.08;;;16.10;64.90;;;;;;5052519;28;20059;-60
2021/05/27 07:23:55;;;;;;;8.88;2.88;;;16.00;64.90;;;;;;5053850;28;20112;-60
2021/05/27 07:26:21;;;;;;;6.10;2.42;;;16.40;65.00;;;;;;5053913;28;20032;-61
2021/05/27 07:28:46;;;;;;;9.10;2.95;;;16.20;64.90;;;;;;5054485;28;20025;-60
2021/05/27 07:31:12;;;;;;;5.78;2.58;;;16.50;65.10;;;;;;5054021;28;20485;-62
2021/05/27 07:33:38;;;;;;;6.80;2.15;;;16.10;64.90;;;;;;5052505;28;20115;-61
2021/05/27 07:36:05;;;;;;;4.95;2.25;;;16.30;64.70;;;;;;5053670;28;20019;-61
2021/05/27 07:38:30;;;;;;;4.50;2.60;;;16.30;64.80;;;;;;5053722;28;20040;-62
2021/05/27 07:40:56;;;;;;;12.50;3.95;;;16.40;90.00;;;;;;5053684;28;20375;-60
2021/05/27 07:43:22;;;;;;;7.93;2.70;;;16.10;64.70;;;;;;5053488;28;20036;-58
2021/05/27 07:45:48;;;;;;;6.10;2.33;;;16.40;65.00;;;;;;5053630;28;20044;-61
2021/05/27 07:48:13;;;;;;;7.85;3.33;;;16.10;64.70;;;;;;5053716;28;20459;-61
2021/05/27 07:50:39;;;;;;;7.07;2.45;;;16.20;64.60;;;;;;5053233;28;20048;-61
2021/05/27 07:53:07;;;;;;;7.57;2.42;;;16.20;64.50;;;;;;5052132;28;20460;-60
2021/05/27 07:55:33;;;;;;;7.97;2.35;;;16.30;64.50;;;;;;5053772;28;20053;-60
2021/05/27 07:57:59;;;;;;;3.40;2.40;;;16.40;64.40;;;;;;5053618;28;20025;-61
2021/05/27 08:00:25;;;;;;;6.13;2.53;;;16.40;64.00;;;;;;5051895;28;20036;-61
2021/05/27 08:02:51;;;;;;;6.95;2.53;;;16.60;64.00;;;;;;5053474;28;20020;-60
2021/05/27 08:05:19;;;;;;;6.40;2.28;;;16.70;63.80;;;;;;5052180;28;20458;-59
2021/05/27 08:07:46;;;;;;;6.22;2.65;;;16.60;63.70;;;;;;5053322;28;20051;-60
2021/05/27 08:10:12;;;;;;;4.80;2.17;;;16.60;64.00;;;;;;5053877;28;20029;-61
2021/05/27 08:12:38;;;;;;;6.15;2.40;;;16.80;63.60;;;;;;5053301;28;20025;-61
2021/05/27 08:15:05;;;;;;;7.85;2.47;;;16.80;63.30;;;;;;5053088;28;20060;-61
2021/05/27 08:17:31;;;;;;;4.85;2.42;;;16.90;63.80;;;;;;5053318;28;20219;-61
2021/05/27 08:19:57;;;;;;;9.13;2.88;;;16.90;63.60;;;;;;5053217;28;20028;-61
2021/05/27 08:22:23;;;;;;;4.35;2.20;;;17.00;63.40;;;;;;5053290;28;20017;-61
2021/05/27 08:24:49;;;;;;;5.28;2.28;;;17.00;63.10;;;;;;5053136;28;20025;-61
2021/05/27 08:27:15;;;;;;;7.40;2.80;;;16.80;62.90;;;;;;5052840;28;20112;-61
2021/05/27 08:29:41;;;;;;;9.75;2.13;;;17.10;62.90;;;;;;5053153;28;20078;-61
2021/05/27 08:32:07;;;;;;;10.38;2.45;;;17.10;63.00;;;;;;5053038;28;20104;-61
2021/05/27 08:34:33;;;;;;;4.45;2.20;;;17.10;62.80;;;;;;5052558;28;20107;-61
2021/05/27 08:36:59;;;;;;;5.05;2.10;;;16.90;62.50;;;;;;5052745;28;20048;-60
2021/05/27 08:39:24;;;;;;;6.97;2.40;;;17.50;62.90;;;;;;5051194;28;20041;-60
2021/05/27 08:41:50;;;;;;;18.35;2.40;;;17.20;62.70;;;;;;5051259;28;20035;-57
2021/05/27 08:44:16;;;;;;;6.25;2.22;;;17.10;63.00;;;;;;5052821;28;20028;-60
2021/05/27 08:46:42;;;;;;;9.85;2.35;;;17.10;62.50;;;;;;5051428;28;20024;-60
2021/05/27 08:49:07;;;;;;;5.38;2.40;;;17.20;62.80;;;;;;5052369;28;20041;-61
2021/05/27 08:51:35;;;;;;;6.88;2.60;;;17.10;63.10;;;;;;5052736;28;20052;-62
2021/05/27 08:54:04;;;;;;;10.98;2.20;;;17.20;63.00;;;;;;5052461;28;20025;-61
2021/05/27 08:56:30;;;;;;;4.93;1.95;;;17.30;62.50;;;;;;5051074;28;20021;-61
2021/05/27 08:58:56;;;;;;;8.98;2.38;;;17.10;62.30;;;;;;5052411;28;20044;-61
2021/05/27 09:01:23;;;;;;;7.22;1.92;;;17.10;62.50;;;;;;5052272;28;20029;-60
2021/05/27 09:03:50;;;;;;;3.50;1.70;;;17.40;62.60;;;;;;5052402;28;20495;-60
2021/05/27 09:06:17;;;;;;;6.70;2.30;;;17.90;62.90;;;;;;5052283;28;20460;-60
2021/05/27 09:08:43;;;;;;;7.57;2.22;;;17.20;62.50;;;;;;5052653;28;20021;-60
2021/05/27 09:11:15;;;;;;;9.00;2.30;;;17.30;62.30;;;;;;5052265;28;20112;-60
2021/05/27 09:13:51;;;;;;;6.60;1.85;;;17.40;62.40;;;;;;5052555;28;20075;-60
2021/05/27 09:16:16;;;;;;;7.20;2.60;;;17.40;62.00;;;;;;5052239;28;20033;-60
2021/05/27 09:18:43;;;;;;;7.25;2.80;;;17.20;61.90;;;;;;5051278;28;20040;-60
2021/05/27 09:21:10;;;;;;;7.07;2.15;;;17.30;62.00;;;;;;5056282;28;20025;-60
2021/05/27 09:23:44;;;;;;;7.93;1.80;;;17.50;62.30;;;;;;5054926;28;20021;-61
2021/05/27 09:26:13;;;;;;;3.13;1.50;;;17.30;61.80;;;;;;5039208;28;20017;-62
2021/05/27 09:28:39;;;;;;;3.60;1.85;;;17.50;62.20;;;;;;5056075;28;20060;-62
2021/05/27 09:31:07;;;;;;;7.25;2.33;;;17.50;61.20;;;;;;5054711;28;20499;-61
2021/05/27 09:33:42;;;;;;;5.85;1.98;;;17.50;61.70;;;;;;5054676;28;20102;-60
2021/05/27 09:36:11;;;;;;;3.92;1.67;;;17.60;61.80;;;;;;5055909;28;20024;-62
2021/05/27 09:38:45;;;;;;;2.75;1.50;;;17.60;61.40;;;;;;5055849;28;20483;-62
2021/05/27 09:41:20;;;;;;;3.58;1.60;;;17.60;61.70;;;;;;5055801;28;20043;-62
2021/05/27 09:44:12;;;;;;;4.97;1.80;;;17.60;62.00;;;;;;5055842;28;20036;-62
2021/05/27 09:46:53;;;;;;;4.75;2.03;;;17.60;61.50;;;;;;5047685;28;20116;-61
2021/05/27 09:49:28;;;;;;;;;;;17.40;61.60;;;;;;5054670;28;20052;-61
2021/05/27 09:51:55;;;;;;;4.63;2.20;;;17.60;61.40;;;;;;5056029;28;19958;-61
2021/05/27 09:54:22;;;;;;;4.20;1.67;;;17.60;61.50;;;;;;5054313;28;20040;-61
2021/05/27 09:56:49;;;;;;;4.43;1.65;;;17.70;61.50;;;;;;5055644;28;20021;-61
2021/05/27 09:59:16;;;;;;;4.40;1.77;;;17.50;61.50;;;;;;5054218;28;20033;-62
2021/05/27 10:02:17;;;;;;;5.00;2.40;;;17.40;61.70;;;;;;5054385;28;20025;-62
2021/05/27 10:04:56;;;;;;;4.50;1.83;;;17.70;61.50;;;;;;5055527;28;20103;-61
2021/05/27 10:07:46;;;;;;;4.15;1.80;;;17.50;61.20;;;;;;5055148;28;20021;-61
2021/05/27 10:10:17;;;;;;;4.97;2.08;;;17.60;61.70;;;;;;5055123;28;20467;-61
2021/05/27 10:12:48;;;;;;;4.50;2.15;;;17.80;61.50;;;;;;5055370;28;20055;-61
2021/05/27 10:15:16;;;;;;;4.50;2.05;;;17.50;62.20;;;;;;5055534;28;20361;-61
2021/05/27 10:17:44;;;;;;;2.75;1.85;;;17.70;61.60;;;;;;5055476;28;20025;-60
2021/05/27 10:20:12;;;;;;;5.40;2.38;;;17.70;61.90;;;;;;5055158;28;20017;-62
2021/05/27 10:22:38;;;;;;;6.38;2.25;;;17.80;86.50;;;;;;5055113;28;20075;-62
2021/05/27 10:25:08;;;;;;;4.28;2.00;;;17.70;61.50;;;;;;5055170;28;20060;-63
2021/05/27 10:27:34;;;;;;;;;;;17.70;61.70;;;;;;5055493;28;20025;-62
2021/05/27 10:30:01;;;;;;;5.95;2.08;;;17.70;61.70;;;;;;5054578;28;20396;-62
2021/05/27 10:32:28;;;;;;;6.30;2.28;;;18.20;62.10;;;;;;5054196;28;20414;-63
2021/05/27 10:34:54;;;;;;;8.35;2.47;;;17.50;61.90;;;;;;5055056;28;20043;-61
2021/05/27 10:37:35;;;;;;;3.72;2.05;;;17.40;61.50;;;;;;5055309;28;20495;-62
2021/05/27 10:40:02;;;;;;;2.90;1.70;;;17.70;61.70;;;;;;5055050;28;20049;-62
2021/05/27 10:42:55;;;;;;;3.95;1.88;;;17.60;62.10;;;;;;5054897;28;20055;-62
2021/05/27 10:45:24;;;;;;;5.88;1.92;;;17.60;62.20;;;;;;5054560;28;20203;-62
2021/05/27 10:48:17;;;;;;;5.28;2.50;;;17.50;62.10;;;;;;5054643;28;20063;-62
2021/05/27 10:51:02;;;;;;;5.65;2.15;;;17.60;62.80;;;;;;5051563;28;20045;-61
2021/05/27 10:53:40;;;;;;;6.13;2.38;;;17.70;90.90;;;;;;5054734;28;20060;-62
2021/05/27 10:56:12;;;;;;;7.80;2.60;;;18.00;66.50;;;;;;5054474;28;20017;-62
2021/05/27 10:58:52;;;;;;;6.90;2.45;;;18.20;66.70;;;;;;5052988;28;20048;-62
2021/05/27 11:01:30;;;;;;;5.60;1.75;;;17.60;66.40;;;;;;5054417;28;20017;-62
2021/05/27 11:03:57;;;;;;;5.70;2.13;;;17.40;66.30;;;;;;5054369;28;20028;-62
2021/05/27 11:06:28;;;;;;;6.82;2.63;;;18.10;66.50;;;;;;5054210;28;20077;-61
2021/05/27 11:09:24;;;;;;;4.72;2.05;;;17.60;65.30;;;;;;5054149;28;20028;-61
2021/05/27 11:12:17;;;;;;;4.00;2.40;;;17.60;64.90;;;;;;5052763;28;20025;-59
2021/05/27 11:14:46;;;;;;;5.13;2.08;;;17.80;65.40;;;;;;5053870;28;20408;-61
2021/05/27 11:17:16;;;;;;;4.53;2.55;;;18.20;66.20;;;;;;5054221;28;20395;-61
2021/05/27 11:20:06;;;;;;;4.82;2.20;;;18.30;65.80;;;;;;5054168;28;20094;-61
2021/05/27 11:22:35;;;;;;;4.03;2.22;;;17.40;65.40;;;;;;5053902;28;20115;-61
2021/05/27 11:25:25;;;;;;;3.83;2.42;;;17.50;65.60;;;;;;5053751;28;20058;-61
2021/05/27 11:28:00;;;;;;;4.43;2.60;;;19.20;66.50;;;;;;5053870;28;20032;-61
2021/05/27 11:30:36;;;;;;;6.97;2.60;;;17.30;65.80;;;;;;5053788;28;20480;-61
2021/05/27 11:33:03;;;;;;;4.47;2.10;;;17.50;65.70;;;;;;5053938;28;20386;-61
2021/05/27 11:35:39;;;;;;;8.35;2.97;;;17.70;66.10;;;;;;5053580;28;20092;-61
2021/05/27 11:38:22;;;;;;;6.22;2.50;;;17.40;65.70;;;;;;5053484;28;20045;-61
2021/05/27 11:40:51;;;;;;;5.10;2.42;;;17.50;65.70;;;;;;5053888;28;20052;-61
2021/05/27 11:43:19;;;;;;;7.43;2.63;;;17.50;90.40;;;;;;5052002;28;20013;-61
2021/05/27 11:45:48;;;;;;;5.50;2.42;;;17.40;65.80;;;;;;5053368;28;20103;-62
2021/05/27 11:48:31;;;;;;;3.72;2.55;;;17.40;66.10;;;;;;5052042;28;20475;-61
2021/05/27 11:51:03;;;;;;;3.33;2.13;;;17.30;66.30;;;;;;5053239;28;20464;-61
2021/05/27 11:53:48;;;;;;;5.60;2.55;;;17.40;66.40;;;;;;5053292;28;20553;-61
2021/05/27 11:56:25;;;;;;;4.68;2.20;;;17.40;66.40;;;;;;5053260;28;20056;-62
2021/05/27 11:58:50;;;;;;;5.93;2.47;;;17.20;66.40;;;;;;5053185;28;20527;-60
2021/05/27 12:01:28;;;;;;;4.97;2.70;;;17.10;66.40;;;;;;5051878;28;20059;-61
2021/05/27 12:04:18;;;;;;;6.65;2.35;;;17.50;66.70;;;;;;5053590;28;20020;-61
2021/05/27 12:06:51;;;;;;;3.38;2.10;;;17.40;66.60;;;;;;5053159;28;20420;-61
2021/05/27 12:09:26;;;;;;;4.38;2.13;;;17.40;66.50;;;;;;5053206;28;20417;-62
2021/05/27 12:11:53;;;;;;;3.92;2.30;;;17.40;66.50;;;;;;5053058;28;20052;-62
2021/05/27 12:14:19;;;;;;;3.83;1.83;;;17.50;66.70;;;;;;5053352;28;20033;-62
2021/05/27 12:16:45;;;;;;;4.88;2.50;;;17.50;66.80;;;;;;5052987;28;20033;-62
2021/05/27 12:19:12;;;;;;;2.65;2.13;;;17.40;66.90;;;;;;5052875;28;20115;-62
2021/05/27 12:21:55;;;;;;;3.75;2.08;;;17.60;66.90;;;;;;5053171;28;20048;-61
2021/05/27 12:24:29;;;;;;;3.72;1.85;;;17.60;66.80;;;;;;5053218;28;20074;-62
2021/05/27 12:26:56;;;;;;;4.20;2.05;;;17.70;66.90;;;;;;5053083;28;20029;-62
2021/05/27 12:29:23;;;;;;;4.90;1.80;;;17.60;66.90;;;;;;5053029;28;20426;-61
2021/05/27 12:31:50;;;;;;;3.00;2.10;;;17.70;66.90;;;;;;5051517;28;20075;-61
2021/05/27 12:34:16;;;;;;;2.95;1.60;;;17.80;66.90;;;;;;5052942;28;20392;-61
2021/05/27 12:36:52;;;;;;;2.42;1.60;;;17.70;66.70;;;;;;5052952;28;20021;-61
2021/05/27 12:39:35;;;;;;;2.05;1.58;;;17.70;66.70;;;;;;5052890;28;20395;-61
2021/05/27 12:42:03;;;;;;;5.45;1.80;;;17.90;66.50;;;;;;5052960;28;20021;-61
2021/05/27 12:44:48;;;;;;;3.67;1.77;;;18.00;66.50;;;;;;5052677;28;20151;-61
2021/05/27 12:47:22;;;;;;;4.43;1.55;;;17.90;66.40;;;;;;5052494;28;20021;-61
2021/05/27 12:49:49;;;;;;;3.83;2.13;;;18.00;66.20;;;;;;5052418;28;20083;-61
2021/05/27 12:52:36;;;;;;;2.08;1.60;;;18.10;66.20;;;;;;5052550;28;20613;-62
2021/05/27 12:55:07;;;;;;;1.90;1.42;;;17.90;66.00;;;;;;5042002;28;20040;-62
2021/05/27 12:57:33;;;;;;;2.80;1.77;;;18.20;65.70;;;;;;5052672;28;20029;-61
2021/05/27 12:59:58;;;;;;;2.70;1.48;;;18.20;65.60;;;;;;5052750;28;20082;-61